Time;durP1;ratioP1;P1;durP2;ratioP2;P2;SDS_P1;SDS_P2;PMS_P1;PMS_P2;Temp;Humidity;BMP_temperature;BMP_pressure;BME280_temperature;BME280_humidity;BME280_pressure;Samples;Min_cycle;Max_cycle;Signal;HPM_P1;HPM_P2
2023/05/13 00:01:01;;;;;;;153.07;64.30;;;;;;;18.41;46.98;102004.16;5015316;28;20490;-75
2023/05/13 00:03:27;;;;;;;143.63;65.25;;;;;;;18.40;46.35;102003.28;5032482;28;20490;-75
2023/05/13 00:05:53;;;;;;;146.48;68.30;;;;;;;18.40;46.30;102000.63;5028078;28;20487;-76
2023/05/13 00:08:19;;;;;;;137.55;61.97;;;;;;;18.40;46.21;101998.00;5016574;28;20017;-76
2023/05/13 00:10:44;;;;;;;134.23;63.72;;;;;;;18.38;46.46;101997.19;5028078;28;20036;-76
2023/05/13 00:13:09;;;;;;;134.35;62.67;;;;;;;18.39;46.84;102001.56;5018584;28;20022;-73
2023/05/13 00:15:35;;;;;;;140.82;63.13;;;;;;;18.37;46.54;101992.81;5022442;28;20570;-77
2023/05/13 00:18:00;;;;;;;147.15;64.25;;;;;;;18.38;46.75;101993.69;5036117;28;20079;-74
2023/05/13 00:20:25;;;;;;;151.32;64.07;;;;;;;18.37;46.50;101998.09;5041840;28;20040;-73
2023/05/13 00:22:51;;;;;;;153.07;65.07;;;;;;;18.37;46.85;101998.09;5039432;28;20037;-74
2023/05/13 00:25:16;;;;;;;142.55;62.05;;;;;;;18.36;46.72;101988.41;5049468;28;20120;-73
2023/05/13 00:27:41;;;;;;;137.48;62.90;;;;;;;18.36;46.46;101995.50;5011664;28;20102;-75
2023/05/13 00:30:07;;;;;;;133.40;62.03;;;;;;;18.35;46.53;102002.56;5030032;28;20029;-74
2023/05/13 00:32:33;;;;;;;141.10;64.05;;;;;;;18.32;46.61;101996.50;5047857;28;20029;-75
2023/05/13 00:34:58;;;;;;;135.73;61.72;;;;;;;18.29;46.93;102000.09;5041435;28;20030;-74
2023/05/13 00:37:23;;;;;;;143.30;64.72;;;;;;;18.28;46.89;102006.28;5013222;28;20036;-75
2023/05/13 00:39:49;;;;;;;130.45;62.45;;;;;;;18.26;47.41;101994.91;5032909;28;20284;-74
2023/05/13 00:42:14;;;;;;;139.07;63.88;;;;;;;18.24;47.11;101991.41;5014087;28;20075;-74
2023/05/13 00:44:40;;;;;;;143.43;63.80;;;;;;;18.24;47.01;101996.69;5014594;28;20021;-75
2023/05/13 00:47:06;;;;;;;138.15;62.78;;;;;;;18.23;47.26;102000.28;5032127;28;20029;-74
2023/05/13 00:49:32;;;;;;;141.35;63.70;;;;;;;18.23;47.38;101997.63;5013591;28;20076;-74
2023/05/13 00:51:57;;;;;;;139.05;61.78;;;;;;;18.22;46.83;102001.19;5005795;28;20030;-74
2023/05/13 00:54:23;;;;;;;151.35;65.53;;;;;;;18.22;47.04;101998.53;5063480;22;20044;-74
2023/05/13 00:56:53;;;;;;;146.15;64.90;;;;;;;18.21;47.09;101991.50;5034270;28;20104;-75
2023/05/13 00:59:19;;;;;;;140.88;62.75;;;;;;;18.21;47.24;102002.06;5048795;28;20028;-74
2023/05/13 01:02:11;;;;;;;144.30;63.88;;;;;;;18.19;47.12;101996.84;5012053;28;20064;-75
2023/05/13 01:05:02;;;;;;;147.07;64.85;;;;;;;18.23;47.46;101997.63;5031696;28;20032;-74
2023/05/13 01:07:35;;;;;;;149.35;65.32;;;;;;;18.24;46.51;101996.69;5035538;28;20025;-75
2023/05/13 01:10:12;;;;;;;142.00;62.45;;;;;;;18.25;46.97;101998.44;5019975;28;20024;-74
2023/05/13 01:12:40;;;;;;;141.45;63.83;;;;;;;18.25;46.93;101993.16;5015351;28;20059;-73
2023/05/13 01:15:13;;;;;;;147.65;64.50;;;;;;;18.25;46.50;102001.09;5033696;28;20416;-73
2023/05/13 01:17:50;;;;;;;153.80;64.80;;;;;;;18.25;47.34;101993.16;5035866;28;20033;-74
2023/05/13 01:20:20;;;;;;;143.73;64.57;;;;;;;18.25;46.65;101993.16;5047083;28;20100;-73
2023/05/13 01:22:46;;;;;;;142.93;63.55;;;;;;;18.25;46.96;101993.16;5032762;28;20033;-73
2023/05/13 01:25:11;;;;;;;153.25;65.43;;;;;;;18.23;46.82;101990.56;5051073;28;20493;-73
2023/05/13 01:27:36;;;;;;;154.13;64.32;;;;;;;18.24;46.64;101988.75;5019327;28;20013;-73
2023/05/13 01:30:02;;;;;;;143.32;63.35;;;;;;;18.24;46.81;101988.75;5035131;28;20117;-74
2023/05/13 01:32:28;;;;;;;148.00;63.25;;;;;;;18.24;46.40;102000.22;5034840;28;20017;-74
2023/05/13 01:34:54;;;;;;;145.13;63.65;;;;;;;18.24;46.81;102007.28;5035158;28;20438;-73
2023/05/13 01:37:19;;;;;;;135.68;63.17;;;;;;;18.23;46.82;102006.41;5032431;28;20025;-74
2023/05/13 01:39:45;;;;;;;132.88;62.45;;;;;;;18.24;46.84;102001.97;5034379;28;20108;-74
2023/05/13 01:42:11;;;;;;;152.40;64.85;;;;;;;18.23;47.07;102000.28;5033523;28;20029;-74
2023/05/13 01:44:36;;;;;;;142.75;63.70;;;;;;;18.21;47.05;101996.78;5016696;28;20052;-74
2023/05/13 01:47:02;;;;;;;160.82;63.97;;;;;;;18.22;46.46;102003.81;5034599;28;20036;-74
2023/05/13 01:49:27;;;;;;;140.98;62.75;;;;;;;18.21;46.86;102002.06;5014885;28;20029;-74
2023/05/13 01:51:52;;;;;;;146.65;63.55;;;;;;;18.21;47.30;102002.06;5047098;28;20031;-74
2023/05/13 01:54:18;;;;;;;154.18;64.60;;;;;;;18.20;47.08;102002.97;5028672;28;20053;-73
2023/05/13 01:56:43;;;;;;;141.55;63.08;;;;;;;18.20;46.67;102002.97;5052634;28;20017;-74
2023/05/13 01:59:09;;;;;;;143.35;64.50;;;;;;;18.20;46.92;102005.63;5029284;28;20045;-73
2023/05/13 02:01:35;;;;;;;149.13;63.63;;;;;;;18.18;47.09;102008.31;5007952;28;20037;-74
2023/05/13 02:04:01;;;;;;;142.63;63.30;;;;;;;18.19;46.44;101998.63;5011662;28;20032;-75
2023/05/13 02:06:27;;;;;;;141.07;63.25;;;;;;;18.19;46.75;102003.91;5027959;28;20075;-75
2023/05/13 02:08:52;;;;;;;142.68;63.60;;;;;;;18.19;46.44;102003.91;5031237;28;20115;-75
2023/05/13 02:11:17;;;;;;;156.85;64.70;;;;;;;18.18;46.92;101994.25;5031323;28;20027;-75
2023/05/13 02:13:43;;;;;;;144.45;64.15;;;;;;;18.18;46.84;102002.16;5051161;28;20024;-75
2023/05/13 02:16:10;;;;;;;138.10;62.85;;;;;;;18.17;46.86;102009.22;5030629;28;20025;-74
2023/05/13 02:18:35;;;;;;;135.38;61.35;;;;;;;18.16;46.75;102006.63;5039485;28;20033;-75
2023/05/13 02:21:00;;;;;;;148.38;64.80;;;;;;;18.16;46.98;102001.34;5031770;28;20086;-75
2023/05/13 02:23:26;;;;;;;145.90;63.55;;;;;;;18.15;47.06;101992.53;5029345;28;20020;-75
2023/05/13 02:25:51;;;;;;;143.15;64.25;;;;;;;18.15;46.96;101996.97;5050648;28;20536;-74
2023/05/13 02:28:17;;;;;;;169.98;66.93;;;;;;;18.14;46.88;101995.22;5048351;28;20109;-74
2023/05/13 02:30:42;;;;;;;150.32;65.15;;;;;;;18.13;46.72;102004.06;5026503;28;20577;-74
2023/05/13 02:33:07;;;;;;;144.45;63.80;;;;;;;18.14;47.04;102008.44;5024622;28;20470;-74
2023/05/13 02:35:33;;;;;;;140.88;61.75;;;;;;;18.13;47.21;102004.06;5013069;28;20063;-74
2023/05/13 02:37:58;;;;;;;141.07;62.47;;;;;;;18.12;46.57;102002.31;5033884;28;20032;-74
2023/05/13 02:40:23;;;;;;;142.75;65.22;;;;;;;18.14;46.79;102008.44;5051769;28;20036;-73
2023/05/13 02:42:49;;;;;;;155.57;65.43;;;;;;;18.13;46.61;102001.41;5028048;28;20033;-74
2023/05/13 02:45:15;;;;;;;138.35;63.78;;;;;;;18.14;46.53;102011.09;5030077;28;20124;-74
2023/05/13 02:47:41;;;;;;;137.23;61.78;;;;;;;18.12;46.89;102002.31;5029814;28;20017;-74
2023/05/13 02:50:08;;;;;;;146.27;66.13;;;;;;;18.13;47.18;102009.34;5048802;28;20040;-75
2023/05/13 02:52:34;;;;;;;141.57;64.45;;;;;;;18.11;46.84;102005.91;5048019;28;20049;-74
2023/05/13 02:55:00;;;;;;;143.82;74.63;;;;;;;18.10;46.62;102005.00;5030897;28;20036;-74
2023/05/13 02:57:26;;;;;;;145.68;65.47;;;;;;;18.11;46.79;102005.91;5056436;28;20032;-74
2023/05/13 02:59:52;;;;;;;144.50;65.15;;;;;;;18.08;46.70;102001.56;5037063;28;20037;-74
2023/05/13 03:02:17;;;;;;;143.50;65.65;;;;;;;18.10;46.76;102001.50;5018848;28;20516;-74
2023/05/13 03:04:42;;;;;;;144.93;66.30;;;;;;;18.09;46.42;102003.28;5020094;28;20482;-74
2023/05/13 03:07:08;;;;;;;139.00;70.75;;;;;;;18.08;46.84;102005.06;5038125;28;20147;-74
2023/05/13 03:09:34;;;;;;;151.23;66.30;;;;;;;18.09;46.59;101997.97;5033079;28;21023;-74
2023/05/13 03:12:00;;;;;;;152.77;77.75;;;;;;;18.13;47.29;101996.13;5017244;28;20032;-74
2023/05/13 03:14:25;;;;;;;149.02;65.15;;;;;;;18.15;47.57;102007.56;5017547;28;20482;-73
2023/05/13 03:16:51;;;;;;;156.88;66.45;;;;;;;18.19;47.51;102003.91;5054537;28;20446;-73
2023/05/13 03:19:16;;;;;;;152.48;63.90;;;;;;;18.25;47.12;102009.00;5036373;28;20032;-73
2023/05/13 03:21:41;;;;;;;152.93;64.30;;;;;;;18.25;47.09;102009.00;5051408;28;20029;-74
2023/05/13 03:24:07;;;;;;;165.98;67.03;;;;;;;18.24;46.94;101999.34;5047344;28;20064;-73
2023/05/13 03:26:32;;;;;;;143.55;63.00;;;;;;;18.22;47.90;102007.31;5041739;28;20021;-72
2023/05/13 03:28:57;;;;;;;143.35;64.03;;;;;;;18.20;48.12;102005.63;5035940;28;20114;-73
2023/05/13 03:31:23;;;;;;;145.07;64.65;;;;;;;18.17;48.08;102001.28;5034339;28;20028;-73
2023/05/13 03:33:48;;;;;;;145.25;64.53;;;;;;;18.16;47.87;102014.56;5033743;28;20382;-73
2023/05/13 03:36:13;;;;;;;139.90;63.28;;;;;;;18.13;48.32;102006.72;5035597;28;20017;-73
2023/05/13 03:38:39;;;;;;;143.70;63.55;;;;;;;18.12;48.35;102018.19;5035323;28;20555;-73
2023/05/13 03:41:04;;;;;;;144.60;64.28;;;;;;;18.10;48.35;102012.09;5044853;28;20444;-73
2023/05/13 03:43:29;;;;;;;153.00;67.30;;;;;;;18.08;48.96;102010.34;5018493;28;20103;-73
2023/05/13 03:45:55;;;;;;;148.88;65.78;;;;;;;18.07;48.63;102011.25;5034413;28;20120;-73
2023/05/13 03:48:20;;;;;;;147.68;67.05;;;;;;;18.05;48.88;102013.09;5033635;28;20032;-74
2023/05/13 03:50:45;;;;;;;161.00;67.95;;;;;;;18.03;48.78;102014.88;5034796;28;20098;-73
2023/05/13 03:53:11;;;;;;;141.52;63.20;;;;;;;18.02;49.33;102013.13;5035035;28;20032;-73
2023/05/13 03:55:36;;;;;;;145.20;62.90;;;;;;;18.01;48.80;102011.44;5053084;28;20017;-73
2023/05/13 03:58:11;;;;;;;152.65;64.57;;;;;;;18.02;48.54;102013.13;5044370;28;20045;-74
2023/05/13 04:00:36;;;;;;;142.18;62.85;;;;;;;18.00;48.99;102014.97;5034663;28;20021;-74
2023/05/13 04:03:02;;;;;;;140.70;62.05;;;;;;;18.01;48.90;102016.72;5030734;28;20641;-74
2023/05/13 04:05:27;;;;;;;145.27;64.50;;;;;;;18.02;49.25;102012.28;5052692;28;20024;-74
2023/05/13 04:07:52;;;;;;;147.35;66.38;;;;;;;18.00;49.05;102012.31;5034165;28;20025;-73
2023/05/13 04:10:18;;;;;;;149.82;65.75;;;;;;;18.02;48.98;102018.44;5052230;28;20096;-73
2023/05/13 04:12:43;;;;;;;145.60;64.40;;;;;;;18.02;49.99;102023.72;5033874;28;20016;-74
2023/05/13 04:15:09;;;;;;;152.70;67.32;;;;;;;18.02;49.58;102018.44;5034474;28;20039;-74
2023/05/13 04:17:34;;;;;;;149.45;65.57;;;;;;;18.02;49.42;102015.78;5032847;28;20480;-74
2023/05/13 04:19:59;;;;;;;141.93;62.92;;;;;;;18.00;49.41;102011.47;5051750;28;20028;-73
2023/05/13 04:22:25;;;;;;;145.75;63.95;;;;;;;18.02;50.04;102023.72;5032885;28;20036;-73
2023/05/13 04:24:55;;;;;;;142.13;62.75;;;;;;;18.03;49.49;102025.47;5026224;28;20029;-73
2023/05/13 04:27:24;;;;;;;140.63;62.47;;;;;;;18.03;49.71;102020.16;5034098;28;20021;-74
2023/05/13 04:29:50;;;;;;;142.00;63.08;;;;;;;18.03;49.77;102020.16;5017732;28;20033;-75
2023/05/13 04:32:20;;;;;;;143.75;63.13;;;;;;;18.03;49.92;102020.16;5034235;28;20032;-75
2023/05/13 04:34:45;;;;;;;143.68;67.00;;;;;;;18.05;50.08;102025.41;5019008;28;20107;-74
2023/05/13 04:37:10;;;;;;;142.00;64.15;;;;;;;18.06;49.79;102025.41;5034123;28;20104;-74
2023/05/13 04:39:36;;;;;;;144.65;63.95;;;;;;;18.07;50.22;102031.53;5031949;28;20474;-75
2023/05/13 04:42:01;;;;;;;142.40;64.03;;;;;;;18.08;50.10;102034.16;5033205;28;20371;-74
2023/05/13 04:44:26;;;;;;;141.02;63.22;;;;;;;18.10;50.58;102038.53;5012967;28;20504;-74
2023/05/13 04:46:52;;;;;;;158.60;65.75;;;;;;;18.10;50.14;102030.59;5031216;28;20020;-74
2023/05/13 04:49:17;;;;;;;145.15;63.55;;;;;;;18.10;49.83;102034.09;5051846;28;20033;-74
2023/05/13 04:51:42;;;;;;;139.63;64.57;;;;;;;18.13;50.19;102041.09;5034588;28;20081;-74
2023/05/13 04:54:08;;;;;;;144.18;63.38;;;;;;;18.14;50.39;102034.91;5052184;28;20370;-75
2023/05/13 04:56:33;;;;;;;155.05;63.47;;;;;;;18.16;50.39;102041.00;5033427;28;20074;-75
2023/05/13 04:58:59;;;;;;;152.25;65.53;;;;;;;18.17;50.01;102048.03;5045570;28;20029;-73
2023/05/13 05:01:24;;;;;;;141.75;63.05;;;;;;;18.16;50.31;102047.16;5034613;28;20110;-74
2023/05/13 05:03:49;;;;;;;144.23;64.43;;;;;;;18.18;50.60;102041.84;5033393;28;20033;-74
2023/05/13 05:06:15;;;;;;;147.18;63.92;;;;;;;18.18;50.10;102044.47;5048263;28;20044;-74
2023/05/13 05:08:40;;;;;;;141.32;62.35;;;;;;;18.20;50.67;102047.94;5033045;28;20486;-75
2023/05/13 05:11:05;;;;;;;150.88;63.38;;;;;;;18.21;50.25;102045.25;5032278;28;20501;-74
2023/05/13 05:13:31;;;;;;;140.80;62.55;;;;;;;18.23;50.44;102047.88;5051905;28;20028;-74
2023/05/13 05:15:56;;;;;;;138.55;62.13;;;;;;;18.24;50.46;102044.28;5039901;28;20036;-74
2023/05/13 05:18:21;;;;;;;146.30;62.75;;;;;;;18.26;50.77;102050.44;5050649;28;20028;-74
2023/05/13 05:20:47;;;;;;;147.90;64.53;;;;;;;18.27;50.81;102046.00;5051561;28;20029;-74
2023/05/13 05:23:12;;;;;;;146.63;64.60;;;;;;;18.28;50.97;102051.25;5045728;28;20037;-74
2023/05/13 05:25:37;;;;;;;142.13;62.45;;;;;;;18.30;50.32;102052.09;5030354;28;20024;-75
2023/05/13 05:28:04;;;;;;;140.30;63.85;;;;;;;18.30;50.53;102049.44;5042960;28;20052;-75
2023/05/13 05:30:31;;;;;;;133.60;59.88;;;;;;;18.33;50.60;102053.78;5033382;28;20028;-75
2023/05/13 05:32:57;;;;;;;144.00;64.75;;;;;;;18.34;50.36;102061.66;5017322;28;20032;-74
2023/05/13 05:35:22;;;;;;;145.15;63.67;;;;;;;18.35;50.99;102052.84;5051828;28;20017;-75
2023/05/13 05:37:48;;;;;;;147.82;64.53;;;;;;;18.36;50.41;102057.19;5016034;28;20497;-75
2023/05/13 05:40:13;;;;;;;143.02;63.70;;;;;;;18.37;50.19;102047.50;5051427;28;20027;-75
2023/05/13 05:42:38;;;;;;;140.50;61.85;;;;;;;18.39;50.77;102054.47;5029756;28;20124;-75
2023/05/13 05:45:04;;;;;;;140.95;63.22;;;;;;;18.41;50.59;102057.94;5026491;28;20021;-74
2023/05/13 05:47:30;;;;;;;140.05;62.70;;;;;;;18.42;50.16;102051.75;5012606;28;20021;-75
2023/05/13 05:49:55;;;;;;;136.98;61.42;;;;;;;18.45;50.59;102050.78;5033470;28;20209;-75
2023/05/13 05:52:20;;;;;;;145.88;62.60;;;;;;;18.45;50.43;102048.16;5050575;28;20453;-74
2023/05/13 05:54:45;;;;;;;145.95;64.60;;;;;;;18.49;50.23;102054.22;5024180;28;20080;-74
2023/05/13 05:57:11;;;;;;;144.73;63.80;;;;;;;18.50;50.22;102055.94;5042866;28;20067;-74
2023/05/13 05:59:36;;;;;;;145.10;63.22;;;;;;;18.53;50.26;102050.59;5029798;28;20031;-74
2023/05/13 06:02:02;;;;;;;140.35;62.00;;;;;;;18.54;49.88;102057.59;5013648;28;20034;-73
2023/05/13 06:04:27;;;;;;;142.13;63.13;;;;;;;18.56;50.32;102058.44;5045774;28;20023;-73
2023/05/13 06:06:52;;;;;;;143.52;62.25;;;;;;;18.59;49.02;102055.69;5031374;28;20021;-74
2023/05/13 06:09:17;;;;;;;169.25;81.68;;;;;;;18.75;49.00;102058.78;5025849;28;20032;-76
2023/05/13 06:11:43;;;;;;;139.90;60.90;;;;;;;19.18;47.66;102064.59;5029328;28;20075;-75
2023/05/13 06:14:08;;;;;;;160.70;65.50;;;;;;;19.62;46.06;102050.84;5008333;28;20021;-74
2023/05/13 06:16:33;;;;;;;144.10;62.05;;;;;;;19.99;44.78;102053.19;5024858;28;20033;-74
2023/05/13 06:18:59;;;;;;;143.02;60.92;;;;;;;20.30;43.98;102052.13;5033021;28;20025;-74
2023/05/13 06:21:24;;;;;;;146.02;61.85;;;;;;;20.57;43.11;102052.00;5048149;28;20074;-74
2023/05/13 06:23:49;;;;;;;147.73;62.08;;;;;;;20.79;43.17;102053.91;5049064;28;20036;-74
2023/05/13 06:26:15;;;;;;;151.32;62.03;;;;;;;20.99;42.30;102051.34;5029641;28;20036;-77
2023/05/13 06:28:40;;;;;;;142.30;60.22;;;;;;;21.27;42.19;102052.94;5053935;28;20017;-76
2023/05/13 06:31:06;;;;;;;150.38;61.88;;;;;;;21.47;42.64;102056.56;5035109;28;20540;-76
2023/05/13 06:33:31;;;;;;;152.75;64.32;;;;;;;21.62;42.19;102055.97;5017352;28;20039;-76
2023/05/13 06:35:56;;;;;;;145.68;63.03;;;;;;;21.80;41.59;102053.47;5034423;28;20055;-76
2023/05/13 06:38:22;;;;;;;144.82;61.97;;;;;;;21.96;40.96;102059.88;5039179;28;20032;-75
2023/05/13 06:40:47;;;;;;;149.90;61.78;;;;;;;22.08;40.66;102054.03;5022992;28;20048;-73
2023/05/13 06:43:15;;;;;;;174.68;68.13;;;;;;;22.07;41.75;102047.00;5034275;28;20595;-74
2023/05/13 06:45:41;;;;;;;160.48;64.53;;;;;;;22.16;40.79;102056.38;5051580;28;20029;-73
2023/05/13 06:48:06;;;;;;;158.85;65.13;;;;;;;22.22;40.55;102055.22;5016036;28;20207;-73
2023/05/13 06:50:32;;;;;;;155.18;62.58;;;;;;;22.29;40.62;102056.69;5035820;28;20332;-74
2023/05/13 06:52:57;;;;;;;226.95;74.53;;;;;;;22.37;40.21;102059.91;5055591;22;21421;-76
2023/05/13 06:55:22;;;;;;;145.07;62.85;;;;;;;22.47;39.98;102062.16;5034741;28;20051;-74
2023/05/13 06:57:48;;;;;;;145.95;63.85;;;;;;;22.53;40.09;102069.88;5015172;28;20486;-75
2023/05/13 07:00:14;;;;;;;148.27;63.85;;;;;;;22.61;39.98;102057.06;5034216;28;20419;-75
2023/05/13 07:02:39;;;;;;;146.80;64.75;;;;;;;22.70;39.54;102061.09;5029245;28;20025;-73
2023/05/13 07:05:05;;;;;;;152.43;63.65;;;;;;;22.77;39.92;102062.56;5030276;28;20129;-73
2023/05/13 07:07:31;;;;;;;161.25;65.55;;;;;;;22.87;39.63;102060.34;5016942;28;20060;-73
2023/05/13 07:09:56;;;;;;;148.88;64.03;;;;;;;22.93;39.11;102046.72;5052443;28;20029;-74
2023/05/13 07:12:21;;;;;;;147.00;62.88;;;;;;;22.91;38.86;102054.78;5035610;28;20044;-73
2023/05/13 07:14:47;;;;;;;147.25;63.53;;;;;;;22.90;38.84;102058.38;5053103;28;20087;-73
2023/05/13 07:17:12;;;;;;;149.25;64.53;;;;;;;22.88;39.27;102054.94;5048608;28;20021;-74
2023/05/13 07:19:37;;;;;;;148.23;64.55;;;;;;;22.79;40.09;102050.88;5035238;28;20101;-74
2023/05/13 07:22:03;;;;;;;149.50;64.65;;;;;;;22.73;39.69;102051.19;5035063;28;20032;-73
2023/05/13 07:24:28;;;;;;;153.02;65.75;;;;;;;22.70;39.29;102054.00;5035856;28;20045;-73
2023/05/13 07:26:53;;;;;;;159.50;65.57;;;;;;;22.66;40.13;102049.75;5030814;28;20094;-74
2023/05/13 07:29:19;;;;;;;141.98;63.53;;;;;;;22.64;39.56;102051.59;5034037;28;20028;-74
2023/05/13 07:31:44;;;;;;;142.68;63.47;;;;;;;22.62;39.62;102053.50;5052985;28;20024;-74
2023/05/13 07:34:09;;;;;;;163.20;66.90;;;;;;;22.61;40.50;102057.06;5053577;28;20092;-74
2023/05/13 07:36:35;;;;;;;153.00;66.00;;;;;;;22.61;40.46;102057.06;5050394;28;20029;-74
2023/05/13 07:39:01;;;;;;;142.00;65.65;;;;;;;22.61;39.71;102051.75;5032602;28;20036;-73
2023/05/13 07:41:26;;;;;;;146.40;63.75;;;;;;;22.60;40.04;102045.53;5053012;28;20112;-73
2023/05/13 07:43:55;;;;;;;144.30;65.32;;;;;;;22.60;40.69;102050.03;5022184;28;20020;-74
2023/05/13 07:46:20;;;;;;;151.80;66.22;;;;;;;22.63;40.10;102052.53;5035564;28;20092;-74
2023/05/13 07:48:45;;;;;;;148.13;65.00;;;;;;;22.62;40.14;102051.69;5027172;28;20538;-73
2023/05/13 07:51:11;;;;;;;143.82;64.30;;;;;;;22.62;40.06;102054.34;5019618;28;20025;-73
2023/05/13 07:53:36;;;;;;;147.75;64.90;;;;;;;22.62;39.78;102045.50;5034707;28;20028;-74
2023/05/13 07:56:02;;;;;;;140.60;63.80;;;;;;;22.62;39.99;102048.16;5035336;28;20017;-73
2023/05/13 07:58:27;;;;;;;139.60;63.58;;;;;;;22.62;40.20;102051.69;5048888;28;20501;-74
2023/05/13 08:00:53;;;;;;;141.75;63.72;;;;;;;22.62;40.63;102046.34;5053453;28;20116;-74
2023/05/13 08:03:18;;;;;;;134.45;63.35;;;;;;;22.62;40.97;102056.16;5052915;28;20045;-74
2023/05/13 08:05:43;;;;;;;145.93;64.45;;;;;;;22.64;40.41;102051.59;5052813;28;20025;-74
2023/05/13 08:08:09;;;;;;;139.07;64.07;;;;;;;22.63;40.43;102049.88;5015650;28;20535;-74
2023/05/13 08:10:34;;;;;;;143.88;63.97;;;;;;;22.62;40.90;102038.38;5035238;28;20021;-74
2023/05/13 08:12:59;;;;;;;145.77;64.10;;;;;;;22.62;40.04;102053.50;5034388;28;20021;-74
2023/05/13 08:15:25;;;;;;;144.75;65.30;;;;;;;22.61;40.12;102049.09;5018471;28;20075;-74
2023/05/13 08:17:52;;;;;;;145.55;64.40;;;;;;;22.60;40.55;102047.34;5014707;28;20115;-74
2023/05/13 08:20:18;;;;;;;146.15;64.90;;;;;;;22.58;40.68;102046.56;5052782;28;20071;-73
2023/05/13 08:22:43;;;;;;;142.43;64.68;;;;;;;22.55;40.91;102049.34;5028203;28;20100;-73
2023/05/13 08:25:12;;;;;;;140.30;63.15;;;;;;;22.51;41.46;102042.44;5016408;28;20029;-74
2023/05/13 08:27:37;;;;;;;139.00;63.42;;;;;;;22.47;41.15;102052.38;5043305;28;20067;-74
2023/05/13 08:30:04;;;;;;;144.80;63.53;;;;;;;22.45;40.79;102041.81;5023584;28;20048;-74
2023/05/13 08:32:29;;;;;;;139.13;62.47;;;;;;;22.44;41.22;102036.53;5005581;28;20028;-75
2023/05/13 08:34:55;;;;;;;147.68;64.10;;;;;;;22.37;41.82;102041.25;5034196;28;20032;-75
2023/05/13 08:37:20;;;;;;;151.02;64.55;;;;;;;22.36;41.77;102039.56;5026169;28;20092;-75
2023/05/13 08:39:45;;;;;;;142.60;64.32;;;;;;;22.31;41.38;102038.00;5050038;28;20029;-75
2023/05/13 08:42:13;;;;;;;142.60;64.43;;;;;;;22.27;41.77;102040.78;5052478;28;20020;-74
2023/05/13 08:44:42;;;;;;;141.55;63.70;;;;;;;22.22;41.87;102037.47;5027708;28;20401;-75
2023/05/13 08:47:30;;;;;;;133.40;63.65;;;;;;;22.20;41.94;102041.13;5020173;28;20346;-75
2023/05/13 08:49:56;;;;;;;140.02;63.72;;;;;;;22.19;42.22;102039.41;5017422;28;20054;-75
2023/05/13 08:52:21;;;;;;;138.57;62.55;;;;;;;22.15;42.25;102043.13;5018017;28;20029;-75
2023/05/13 08:54:48;;;;;;;139.85;63.35;;;;;;;22.11;42.25;102037.94;5026346;28;20025;-75
2023/05/13 08:57:13;;;;;;;142.43;63.60;;;;;;;22.07;42.24;102036.34;5038247;28;20122;-74
2023/05/13 08:59:38;;;;;;;142.55;64.47;;;;;;;22.05;42.33;102037.34;5032679;28;20024;-75
2023/05/13 09:02:04;;;;;;;142.77;65.45;;;;;;;22.01;42.61;102036.59;5034191;28;20108;-74
2023/05/13 09:04:30;;;;;;;141.32;65.20;;;;;;;21.98;42.75;102031.44;5012188;28;20057;-74
2023/05/13 09:06:55;;;;;;;148.98;64.95;;;;;;;21.95;42.50;102027.09;5035369;28;20063;-74
2023/05/13 09:09:20;;;;;;;144.98;65.25;;;;;;;21.94;42.77;102041.31;5013519;28;20021;-74
2023/05/13 09:11:47;;;;;;;143.68;65.30;;;;;;;21.91;43.08;102040.59;5014428;28;20033;-74
2023/05/13 09:14:13;;;;;;;158.10;66.63;;;;;;;21.90;43.15;102039.72;5016386;28;20030;-74
2023/05/13 09:16:38;;;;;;;156.10;66.97;;;;;;;21.87;43.34;102044.31;5050578;28;20029;-75
2023/05/13 09:19:05;;;;;;;143.45;64.93;;;;;;;21.83;43.67;102035.59;5050086;28;20113;-74
2023/05/13 09:21:34;;;;;;;148.70;65.68;;;;;;;21.82;43.52;102044.50;5031618;28;20035;-75
2023/05/13 09:24:23;;;;;;;143.35;65.50;;;;;;;21.76;43.25;102042.97;5032879;28;20426;-75
2023/05/13 09:26:50;;;;;;;155.63;66.40;;;;;;;21.73;43.33;102037.81;5010754;28;20094;-75
2023/05/13 09:29:22;;;;;;;145.50;66.57;;;;;;;21.71;43.82;102034.31;5033528;28;20111;-74
2023/05/13 09:31:50;;;;;;;144.75;65.95;;;;;;;21.71;43.63;102030.81;5027132;28;20032;-75
2023/05/13 09:34:29;;;;;;;163.55;66.65;;;;;;;21.67;43.77;102032.72;5025673;28;20500;-75
2023/05/13 09:36:55;;;;;;;154.00;65.13;;;;;;;21.63;43.65;102036.44;5011568;28;20469;-75
2023/05/13 09:39:21;;;;;;;140.93;64.68;;;;;;;21.59;43.90;102030.38;5057944;28;20024;-75
2023/05/13 09:41:46;;;;;;;145.93;64.40;;;;;;;21.58;44.11;102027.78;5041600;28;21104;-75
2023/05/13 09:44:12;;;;;;;155.45;65.82;;;;;;;21.58;44.49;102038.41;5049617;28;20040;-75
2023/05/13 09:46:37;;;;;;;148.73;64.82;;;;;;;21.52;45.35;102041.31;5015183;28;20128;-75
2023/05/13 09:49:03;;;;;;;145.35;63.83;;;;;;;21.47;44.95;102038.81;5032722;28;20013;-75
2023/05/13 09:51:31;;;;;;;138.48;63.05;;;;;;;21.45;44.77;102036.22;5030984;28;20805;-76
2023/05/13 09:54:05;;;;;;;147.60;65.22;;;;;;;21.39;44.85;102028.53;5013500;28;20025;-75
2023/05/13 09:56:31;;;;;;;148.40;64.32;;;;;;;21.36;44.64;102036.59;5018290;28;20021;-76
2023/05/13 09:58:57;;;;;;;140.70;63.35;;;;;;;21.33;45.13;102028.75;5028945;28;20358;-75
2023/05/13 10:01:24;;;;;;;134.90;62.40;;;;;;;21.26;44.75;102027.28;5044780;28;20060;-75
2023/05/13 10:03:49;;;;;;;144.07;64.13;;;;;;;21.26;44.98;102037.91;5027860;28;20399;-75
2023/05/13 10:06:16;;;;;;;142.75;64.00;;;;;;;21.22;44.80;102036.31;5007548;28;20041;-75
2023/05/13 10:08:47;;;;;;;142.50;64.45;;;;;;;21.19;45.25;102026.66;5013732;28;20116;-75
2023/05/13 10:11:14;;;;;;;161.05;66.57;;;;;;;21.17;45.32;102031.16;5023527;28;20040;-75
2023/05/13 10:13:40;;;;;;;140.27;63.17;;;;;;;21.14;45.31;102027.78;5025008;28;20442;-75
2023/05/13 10:16:06;;;;;;;143.20;63.85;;;;;;;21.09;45.70;102030.59;5007934;28;20104;-75
2023/05/13 10:18:32;;;;;;;140.40;63.10;;;;;;;21.07;45.63;102025.34;5022697;28;20031;-75
2023/05/13 10:20:58;;;;;;;140.57;63.53;;;;;;;21.02;45.68;102024.66;5043863;28;20029;-75
2023/05/13 10:23:25;;;;;;;141.82;63.72;;;;;;;20.99;45.47;102018.63;5023162;28;20095;-75
2023/05/13 10:25:52;;;;;;;149.90;65.20;;;;;;;20.97;45.89;102015.16;5014250;28;20024;-75
2023/05/13 10:28:19;;;;;;;142.93;64.25;;;;;;;20.95;46.02;102020.53;5030852;28;20021;-75
2023/05/13 10:30:44;;;;;;;154.07;64.95;;;;;;;20.93;46.03;102019.72;5013623;28;20028;-74
2023/05/13 10:33:10;;;;;;;143.07;62.83;;;;;;;20.91;45.71;102024.22;5048129;28;20017;-75
2023/05/13 10:35:37;;;;;;;145.90;64.38;;;;;;;20.90;46.70;102019.84;5024542;28;20021;-75
2023/05/13 10:38:08;;;;;;;144.35;64.13;;;;;;;20.88;46.73;102016.38;5029719;28;20025;-75
2023/05/13 10:40:40;;;;;;;139.80;62.53;;;;;;;20.87;46.76;102025.28;5026065;28;20032;-75
2023/05/13 10:43:17;;;;;;;146.68;65.07;;;;;;;20.84;46.82;102014.78;5039907;28;20441;-75
2023/05/13 10:46:12;;;;;;;142.10;63.63;;;;;;;20.80;47.28;102016.66;5041913;28;20028;-76
2023/05/13 10:48:41;;;;;;;134.23;61.05;;;;;;;20.77;47.61;102015.00;5002178;28;20409;-75
2023/05/13 10:51:09;;;;;;;135.77;63.50;;;;;;;20.74;47.44;102015.13;5044070;28;20022;-75
2023/05/13 10:53:51;;;;;;;141.48;63.20;;;;;;;20.71;47.09;102015.25;5016343;28;20028;-75
2023/05/13 10:56:21;;;;;;;149.93;65.72;;;;;;;20.67;47.60;102013.59;5019348;28;20892;-75
2023/05/13 10:59:03;;;;;;;147.10;64.82;;;;;;;20.64;47.67;102011.03;5044204;28;20437;-74